Create Custom Reports and Graphics: Custom Report

Top of 22

Current Conditions

12/1/22 9:15 PM (-08:00)
Updated Every 15 Minutes
Temp 19.0 °F   0.1
WindChill -0.4 °F   3.7
RH 94 %   16
Dew Pt 17.6 °F   4.3
Wet Bulb 18.6 °F   1.0
Wind Dir SSW | 210 °
Wind Spd 31.7 mph   19.0
Wind Gust 72.6 mph   15.2
Daily Max Wind 73.6 mph   15.0
Time of Max Wind 2000
Max Wind Dir SW | 216 °
Daily Max Temp 21.7 °F   6.1
Time of Max Temp 0014
Daily Min Temp 15.8 °F   2.6
Time of Min Temp 0542
Yest MinT 18.4 °F
Yest MaxT 27.8 °F
Yest MaxGst 69.0 mph
Calm: 0.0%
Calm: 0.0%

Last 7 Days

Top of 22

Hourly Data | America/Los_Angeles
as of 12/1/22 9:20 PM PST
Date & Time Temp (°F) WindChill (°F) RH (%) Dew Pt (°F) Wet Bulb (°F) Wind Dir (°) Wind Spd (mph) Wind Gust (mph) Wind Gst Dir (°) Daily Min Temp (°F) Daily Max Temp (°F) Daily Max Wind (mph)
12/1/22 - 2100 19.0 -0.3 94 17.5 18.5 SSW | 205 30.7 73.6 SW | 216 15.8 21.7 73.6
12/1/22 - 2000 18.4 -1.2 94 16.9 17.9 SSW | 205 31.3 63.5 WSW | 258 15.8 21.7 70.5
12/1/22 - 1900 18.2 -2.1 94 16.6 17.7 SW | 218 33.9 63.0 SSW | 196 15.8 21.7 70.5
12/1/22 - 1800 18.1 -2.3 93 16.5 17.6 SW | 216 34.0 59.4 SSW | 205 15.8 21.7 70.5
12/1/22 - 1700 18.4 -1.0 94 16.9 18.0 SW | 214 30.7 58.2 SW | 214 15.8 21.7 70.5
12/1/22 - 1600 18.5 -0.6 94 16.9 18.0 SW | 214 29.3 58.8 SW | 214 15.8 21.7 70.5
12/1/22 - 1500 18.6 -0.6 94 17.1 18.2 SSW | 206 30.3 62.3 SW | 230 15.8 21.7 70.5
12/1/22 - 1400 18.6 -1.5 94 17.1 18.2 SSW | 209 33.8 63.0 SSW | 202 15.8 21.7 70.5
12/1/22 - 1300 18.9 -0.3 94 17.4 18.4 SSW | 209 30.4 59.8 SW | 233 15.8 21.7 70.5
12/1/22 - 1200 19.1 4.6 94 17.5 18.6 S | 189 16.0 43.9 SSW | 208 15.8 21.7 70.5
12/1/22 - 1100 18.3 -1.1 93 16.7 17.8 SSW | 204 30.3 55.0 SSW | 210 15.8 21.7 70.5
12/1/22 - 1000 18.0 -3.8 93 16.3 17.5 SW | 215 40.4 61.0 SSW | 212 15.8 21.7 70.5
12/1/22 - 0900 17.9 -2.7 93 16.2 17.4 SSW | 203 34.7 61.9 SW | 221 15.8 21.7 70.5
12/1/22 - 0800 17.2 -6.0 92 15.4 16.7 SW | 222 46.0 63.0 SSW | 212 15.8 21.7 70.5
12/1/22 - 0700 16.9 -6.3 92 15.0 16.4 SW | 219 45.4 65.8 SW | 216 15.8 21.7 70.5
12/1/22 - 0600 17.2 -5.7 85 13.4 16.2 SW | 214 44.7 60.2 SW | 216 15.8 21.7 70.5
12/1/22 - 0500 19.3 -2.4 68 10.4 17.0 SW | 220 42.7 66.2 SW | 214 18.6 21.7 70.5
12/1/22 - 0400 19.7 -2.4 64 9.6 17.2 SW | 221 45.9 60.0 SSW | 203 19.3 21.7 70.5
12/1/22 - 0300 19.9 -2.9 66 10.3 17.5 SSW | 207 50.4 62.4 SSW | 194 19.3 21.7 70.5
12/1/22 - 0200 20.2 -3.2 64 9.8 17.6 SSW | 210 55.0 70.5 SW | 215 19.3 21.7 70.5
12/1/22 - 0100 20.9 -2.5 63 10.4 18.2 SSW | 210 57.4 68.9 SW | 214 20.5 21.7 68.9
12/1/22 - 0000 20.6 -2.7 67 11.5 18.2 SSW | 211 56.2 69.0 SSW | 202 18.4 27.8 69.0
11/30/22 - 2300 19.6 -3.6 76 13.2 17.8 SSW | 213 51.9 66.3 SW | 228 18.4 27.8 66.3
11/30/22 - 2200 19.4 -3.1 76 13.2 17.7 SW | 214 47.3 59.7 SW | 218 18.4 27.8 59.7
11/30/22 - 2100 18.7 -3.8 81 13.8 17.4 SSW | 209 45.9 58.6 SSW | 213 18.4 27.8 58.6
11/30/22 - 2000 19.1 -1.5 77 13.2 17.5 SSW | 205 36.8 54.0 SSW | 213 18.8 27.8 54.0
11/30/22 - 1900 19.7 0.1 72 12.3 17.7 SSW | 210 33.1 54.0 SW | 216 19.4 27.8 54.0
11/30/22 - 1800 20.8 1.3 68 11.8 18.4 SW | 220 34.3 50.7 SE | 128 19.7 27.8 53.4
11/30/22 - 1700 22.6 4.0 56 9.1 19.1 SW | 222 33.5 49.0 SSW | 211 21.6 27.8 53.4
11/30/22 - 1600 24.4 7.1 53 9.7 20.5 SW | 227 30.7 44.9 SSW | 213 21.9 27.8 53.4
11/30/22 - 1500 24.5 6.3 51 9.0 20.5 SW | 229 34.8 53.4 SW | 230 21.9 27.8 53.4
11/30/22 - 1400 25.7 7.5 39 4.2 20.6 SW | 228 37.7 50.0 SW | 225 21.9 27.8 50.0
11/30/22 - 1300 26.6 9.0 33 1.1 20.7 SW | 222 36.2 49.2 SW | 226 21.9 27.8 49.2
11/30/22 - 1200 26.7 8.9 28 -1.9 20.4 SW | 221 37.2 47.5 SW | 222 21.9 27.8 48.0
11/30/22 - 1100 26.8 9.0 24 -5.3 20.1 SW | 219 37.5 47.5 SSW | 206 21.9 27.8 48.0
11/30/22 - 1000 25.7 7.3 23 -7.4 19.2 SSW | 210 38.5 48.0 SW | 220 21.9 27.8 48.0
11/30/22 - 0900 24.2 4.8 28 -4.5 18.4 SSW | 206 40.8 47.1 SW | 215 21.9 27.8 47.5
11/30/22 - 0800 23.3 3.7 33 -1.6 18.0 SSW | 207 39.9 47.3 SSW | 211 21.9 27.8 47.5
11/30/22 - 0700 22.4 3.4 36 -0.4 17.6 SSW | 202 35.2 41.1 SSW | 203 21.9 27.8 47.5
11/30/22 - 0600 23.3 5.1 32 -2.1 18.0 SSW | 210 33.4 40.4 SSW | 212 22.8 27.8 47.5
11/30/22 - 0500 24.0 6.7 32 -1.5 18.5 SSW | 207 30.0 36.0 SSW | 199 23.3 27.8 47.5
11/30/22 - 0400 24.5 6.6 31 -2.2 18.8 SSW | 204 33.5 38.9 SSW | 213 24.0 27.8 47.5
11/30/22 - 0300 26.5 10.1 32 0.8 20.6 SSW | 203 30.3 36.9 SW | 215 25.4 27.8 47.5
11/30/22 - 0200 27.5 10.7 31 1.2 21.4 SSW | 201 34.0 44.5 SSW | 201 27.1 27.8 47.5
11/30/22 - 0100 27.3 9.0 31 0.8 21.1 SSW | 208 41.6 47.5 SSW | 209 27.1 27.6 47.5
11/30/22 - 0000 27.8 10.7 29 -0.4 21.3 SSW | 213 35.6 42.1 SW | 219 20.0 34.9 49.3
11/29/22 - 2300 28.5 14.3 29 -0.1 21.9 SSW | 210 24.0 35.5 SW | 219 20.0 34.9 49.3
11/29/22 - 2200 29.7 17.9 27 0.1 22.7 SSW | 195 16.9 23.9 SSW | 205 20.0 34.9 49.3
11/29/22 - 2100 29.0 18.3 30 1.1 22.3 SW | 218 13.4 22.6 SW | 227 20.0 34.9 49.3
11/29/22 - 2000 28.5 16.8 31 1.5 22.1 SW | 227 16.0 25.0 SW | 221 20.0 34.9 49.3
11/29/22 - 1900 28.7 18.7 31 1.7 22.2 SW | 234 11.9 24.7 WSW | 238 20.0 34.9 49.3
11/29/22 - 1800 30.0 14.7 30 2.1 23.2 SW | 216 30.4 37.7 SW | 221 20.0 34.9 49.3
11/29/22 - 1700 31.1 15.4 30 2.9 24.0 SSW | 212 34.6 41.8 SW | 223 20.0 34.9 49.3
11/29/22 - 1600 32.2 17.2 26 0.6 24.4 SW | 216 33.3 43.8 SW | 216 20.0 34.9 49.3
11/29/22 - 1500 34.1 29.0 22 -0.4 25.6 WSW | 245 5.8 24.2 SW | 228 20.0 34.9 49.3
11/29/22 - 1400 33.9 - 21 -1.8 25.3 S | 185 2.6 7.8 SE | 145 20.0 34.7 49.3
11/29/22 - 1300 33.1 27.7 20 -3.7 24.5 SE | 126 5.7 10.2 ESE | 105 20.0 33.8 49.3
11/29/22 - 1200 31.1 23.7 19 -6.7 22.9 SE | 125 8.0 15.0 ESE | 120 20.0 32.6 49.3
11/29/22 - 1100 30.2 20.7 20 -5.7 22.4 SE | 132 11.5 15.6 SE | 131 20.0 31.0 49.3
11/29/22 - 1000 28.1 17.1 23 -5.0 21.0 SE | 130 13.7 18.3 SE | 130 20.0 29.3 49.3
11/29/22 - 0900 25.7 13.5 25 -5.4 19.3 SE | 129 15.2 20.9 SE | 126 20.0 26.9 49.3
11/29/22 - 0800 22.7 13.4 26 -6.9 17.0 SE | 130 8.2 15.5 ESE | 121 20.0 26.8 49.3
11/29/22 - 0700 23.4 - 23 -9.3 17.3 SW | 228 1.0 4.2 WNW | 291 20.0 26.8 49.3
11/29/22 - 0600 24.4 14.6 25 -6.7 18.2 WNW | 301 9.5 17.9 WNW | 301 20.0 26.8 49.3
11/29/22 - 0500 24.2 15.0 25 -7.0 18.1 SW | 226 8.4 29.1 NW | 304 20.0 26.8 49.3
11/29/22 - 0400 25.6 10.6 23 -7.5 19.1 W | 271 23.3 44.5 WNW | 302 20.0 26.8 49.3
11/29/22 - 0300 26.3 10.6 22 -7.7 19.5 W | 270 26.8 47.3 WSW | 255 20.0 26.8 49.3
11/29/22 - 0200 25.0 8.3 20 -10.2 18.4 W | 269 29.5 49.3 W | 270 20.0 26.7 49.3
11/29/22 - 0100 21.8 3.5 19 -14.3 15.8 W | 265 31.3 47.0 WNW | 284 20.0 24.5 47.0
11/29/22 - 0000 20.2 1.3 21 -13.8 14.6 W | 266 31.2 45.9 WNW | 282 17.2 27.6 87.7
11/28/22 - 2300 21.0 2.8 25 -9.7 15.5 W | 270 29.3 40.9 WSW | 248 17.2 27.6 87.7
11/28/22 - 2200 20.2 1.9 35 -3.8 15.6 W | 266 29.0 41.0 NW | 306 17.2 27.6 87.7
11/28/22 - 2100 18.0 -2.8 51 2.9 14.8 WSW | 255 35.4 45.5 WSW | 251 17.2 27.6 87.7
11/28/22 - 2000 17.6 -3.8 65 7.9 15.4 WSW | 245 38.1 49.2 WSW | 243 17.2 27.6 87.7
11/28/22 - 1900 17.8 -4.1 78 12.1 16.4 SW | 235 41.0 53.3 WSW | 249 17.4 27.6 87.7
11/28/22 - 1800 19.6 -2.4 74 12.6 17.8 WSW | 243 44.7 64.0 SW | 231 18.6 27.6 87.7
11/28/22 - 1700 19.2 -3.7 88 16.3 18.4 SW | 232 49.6 67.6 SW | 234 18.7 27.6 87.7
11/28/22 - 1600 20.0 -2.7 89 17.4 19.2 SW | 221 50.0 66.1 SSW | 208 19.4 27.6 87.7
11/28/22 - 1500 20.5 -3.6 87 17.1 19.5 SW | 217 60.8 75.5 SW | 224 20.4 27.6 87.7
11/28/22 - 1400 21.3 -3.5 82 16.7 19.9 SW | 218 69.0 87.7 SW | 225 20.4 27.6 87.7
11/28/22 - 1300 21.7 -2.6 83 17.4 20.4 SW | 216 66.8 82.4 SW | 220 20.4 27.6 82.4
11/28/22 - 1200 21.5 -1.9 92 19.7 20.9 SW | 214 59.6 75.3 SSW | 212 20.4 27.6 75.3
11/28/22 - 1100 20.9 -2.8 90 18.5 20.1 SW | 214 59.0 68.1 SW | 214 20.4 27.6 69.6
11/28/22 - 1000 21.4 -2.0 83 16.9 20.0 SSW | 212 58.3 68.7 SSW | 213 21.1 27.6 69.6
11/28/22 - 0900 22.0 -1.2 72 14.3 19.8 SW | 216 58.8 69.3 SSW | 208 21.6 27.6 69.6
11/28/22 - 0800 22.2 -0.4 60 10.5 19.2 SW | 219 55.9 68.9 SW | 216 22.0 27.6 69.6
11/28/22 - 0700 22.5 -0.3 47 5.5 18.5 SSW | 211 58.0 69.6 SW | 215 22.1 27.6 69.6
11/28/22 - 0600 23.6 1.5 53 8.9 19.9 SSW | 208 56.2 66.6 SSW | 211 23.2 27.6 67.1
11/28/22 - 0500 24.0 2.5 41 3.5 19.3 SSW | 211 53.8 67.1 SSW | 212 23.8 27.6 67.1
11/28/22 - 0400 24.6 2.8 26 -5.7 18.5 SSW | 213 57.4 63.8 SW | 218 24.2 27.6 63.8
11/28/22 - 0300 25.4 4.3 17 -13.2 18.4 SSW | 212 54.7 60.3 SW | 215 25.0 27.6 61.6
11/28/22 - 0200 26.2 5.3 14 -17.3 18.7 SSW | 212 55.4 60.1 SW | 214 25.9 27.6 61.6
11/28/22 - 0100 26.9 6.4 13 -17.1 19.2 SSW | 205 55.0 61.6 SW | 216 26.3 27.6 61.6
11/28/22 - 0000 27.6 7.7 13 -16.8 19.8 SSW | 207 52.6 60.2 SSW | 205 27.3 37.0 60.2
11/27/22 - 2300 28.4 9.4 14 -15.2 20.4 SSW | 213 48.6 54.4 SW | 215 27.9 37.0 57.6
11/27/22 - 2200 28.6 9.6 12 -16.9 20.5 SW | 215 49.8 57.6 SW | 221 28.4 37.0 57.6
11/27/22 - 2100 28.6 9.7 11 -20.2 20.3 SW | 217 49.2 54.8 SW | 220 28.4 37.0 54.8
11/27/22 - 2000 28.8 10.4 12 -18.4 20.4 SW | 222 45.8 54.1 SW | 219 28.5 37.0 54.1
11/27/22 - 1900 29.2 10.8 14 -13.8 21.0 SW | 219 47.0 53.3 SSW | 204 28.8 37.0 53.8
11/27/22 - 1800 29.6 11.2 24 -3.1 22.3 SW | 217 48.4 53.8 SW | 220 29.0 37.0 53.8
11/27/22 - 1700 30.9 13.6 36 6.9 24.5 SW | 220 45.0 53.5 SW | 221 29.0 37.0 53.5
11/27/22 - 1600 33.1 16.7 32 6.5 25.9 SW | 215 44.5 51.6 SSW | 209 29.0 37.0 51.6
11/27/22 - 1500 34.7 19.7 28 5.0 26.7 SW | 216 38.7 47.2 SW | 218 29.0 37.0 49.5
11/27/22 - 1400 34.9 20.0 22 0.3 26.1 SW | 226 38.9 49.5 SW | 224 29.0 37.0 49.5
11/27/22 - 1300 35.6 22.0 19 -2.9 26.2 SW | 231 32.8 42.0 SW | 231 29.0 37.0 42.0
11/27/22 - 1200 36.2 23.4 16 -5.5 26.3 SW | 228 28.8 39.0 SW | 230 29.0 37.0 39.0
11/27/22 - 1100 36.3 24.2 16 -6.2 26.4 SW | 219 26.0 34.1 SW | 218 29.0 37.0 36.0
11/27/22 - 1000 35.4 24.1 15 -7.5 25.7 SW | 225 21.7 32.6 SSW | 210 29.0 36.2 36.0
11/27/22 - 0900 34.1 23.4 14 -10.8 24.6 SW | 235 17.7 27.6 SW | 232 29.0 35.0 36.0
11/27/22 - 0800 33.0 21.0 15 -9.9 23.9 WSW | 242 21.1 36.0 WSW | 244 29.0 34.2 36.0
11/27/22 - 0700 32.7 21.6 15 -9.7 23.7 WSW | 247 17.6 30.2 WSW | 252 29.0 34.0 30.2
11/27/22 - 0600 31.9 20.9 14 -11.4 23.1 WSW | 248 16.7 23.3 WSW | 241 29.0 34.0 23.3
11/27/22 - 0500 33.2 23.0 16 -8.5 24.2 W | 268 15.6 22.2 WNW | 297 29.0 34.0 22.2
11/27/22 - 0400 32.6 25.3 15 -10.4 23.6 WNW | 299 8.5 15.5 NW | 306 29.0 33.3 20.2
11/27/22 - 0300 32.3 23.7 13 -13.3 23.2 WNW | 296 10.9 17.7 NW | 310 29.0 32.9 20.2
11/27/22 - 0200 32.6 23.0 12 -14.9 23.2 WNW | 288 13.1 17.1 WNW | 288 29.0 32.9 20.2
11/27/22 - 0100 30.6 24.4 10 -19.0 21.7 W | 270 6.2 20.2 W | 281 29.0 32.9 20.2
11/27/22 - 0000 30.3 - 7 -27.0 21.1 SSW | 213 1.0 4.1 SSE | 158 23.8 37.4 42.2
11/26/22 - 2300 27.9 - 10 -23.4 19.6 W | 276 1.3 6.0 N | 349 23.8 37.4 42.2
11/26/22 - 2200 26.1 19.8 15 -15.6 18.8 ENE | 74 5.3 12.4 NNE | 17 23.8 37.4 42.2
11/26/22 - 2100 25.2 18.0 39 2.6 20.1 ENE | 57 6.1 13.8 NNE | 20 23.8 37.4 42.2
11/26/22 - 2000 24.6 15.0 72 16.9 22.3 NE | 39 9.4 17.5 NNE | 16 24.1 37.4 42.2
11/26/22 - 1900 25.5 16.0 76 19.0 23.4 NNE | 25 9.4 17.1 NNE | 19 24.8 37.4 42.2
11/26/22 - 1800 27.4 20.0 66 17.5 24.3 E | 81 6.8 14.2 E | 96 26.2 37.4 42.2
11/26/22 - 1700 28.5 - 66 18.6 25.3 ESE | 116 1.2 5.6 N | 10 27.9 37.4 42.2
11/26/22 - 1600 31.9 24.7 58 18.9 27.7 W | 278 8.1 17.4 NE | 46 28.8 37.4 42.2
11/26/22 - 1500 36.1 29.2 46 17.3 29.9 SSW | 197 9.3 19.9 NNW | 340 30.9 37.4 42.2
11/26/22 - 1400 36.9 30.8 40 14.6 29.8 SW | 234 8.0 18.0 WSW | 255 30.9 37.4 42.2
11/26/22 - 1300 36.5 31.7 42 15.3 29.7 WSW | 238 5.8 11.4 WSW | 245 30.9 37.2 42.2
11/26/22 - 1200 33.5 26.2 41 12.3 27.2 SW | 232 8.8 16.6 SW | 220 30.9 35.2 42.2
11/26/22 - 1100 32.3 23.5 36 7.9 25.6 WSW | 249 11.2 20.0 WSW | 251 30.9 35.2 42.2
11/26/22 - 1000 32.0 20.4 26 1.2 24.4 SW | 230 18.7 25.5 SW | 226 30.9 35.2 42.2
11/26/22 - 0900 31.7 18.5 27 1.7 24.3 SW | 222 24.1 28.7 SW | 225 30.9 35.2 42.2
11/26/22 - 0800 31.2 16.6 24 -1.6 23.5 SW | 223 29.7 37.8 SW | 217 30.9 35.2 42.2
11/26/22 - 0700 31.8 17.2 28 2.0 24.4 SW | 222 30.9 36.4 SW | 225 31.4 35.2 42.2
11/26/22 - 0600 32.6 18.6 29 4.0 25.2 SW | 224 29.0 35.2 SW | 221 32.2 35.2 42.2
11/26/22 - 0500 33.3 19.5 27 3.0 25.5 SW | 227 29.4 34.7 SW | 226 33.0 35.2 42.2
11/26/22 - 0400 34.0 20.3 25 1.5 25.7 SW | 222 30.1 35.4 SW | 230 33.5 35.2 42.2
11/26/22 - 0300 34.7 20.5 20 -2.7 25.7 SW | 222 34.4 42.2 SW | 225 34.3 35.2 42.2
11/26/22 - 0200 34.9 21.4 20 -2.4 25.9 SW | 226 30.6 36.6 SW | 222 34.6 35.2 36.6
11/26/22 - 0100 34.8 21.3 22 0.0 26.1 SW | 232 30.2 34.7 SW | 230 34.6 35.2 34.7
11/26/22 - 0000 35.4 21.6 25 2.9 26.8 WSW | 239 33.0 38.2 WSW | 247 35.0 45.6 38.2
11/25/22 - 2300 35.8 23.1 26 3.9 27.2 SW | 235 28.1 37.5 WSW | 237 35.3 45.6 37.5
11/25/22 - 2200 36.2 24.0 28 6.2 27.8 SW | 232 26.9 34.6 SW | 223 36.0 45.6 35.8
11/25/22 - 2100 36.6 24.6 33 10.5 28.8 SW | 236 26.5 32.7 WSW | 243 36.3 45.6 35.8
11/25/22 - 2000 37.0 26.3 34 11.2 29.2 SW | 229 21.2 28.5 SW | 215 36.4 45.6 35.8
11/25/22 - 1900 37.4 26.8 35 12.1 29.6 SW | 235 20.8 28.3 WSW | 244 36.8 45.6 35.8
11/25/22 - 1800 37.9 28.7 33 11.2 29.8 WSW | 237 16.4 29.1 SW | 236 36.8 45.6 35.8
11/25/22 - 1700 38.9 31.7 31 11.0 30.3 WSW | 237 11.3 18.5 WSW | 240 36.8 45.6 35.8
11/25/22 - 1600 43.7 41.9 26 11.4 33.2 SW | 218 3.6 11.4 SW | 232 36.8 45.6 35.8
11/25/22 - 1500 43.3 38.0 26 11.1 32.9 SW | 231 9.5 18.6 SW | 221 36.8 45.0 35.8
11/25/22 - 1400 43.4 37.5 25 9.8 32.7 WSW | 239 10.9 20.8 WSW | 247 36.8 45.0 35.8
11/25/22 - 1300 43.3 37.8 24 9.2 32.6 WSW | 250 9.8 27.6 WSW | 248 36.8 45.0 35.8
11/25/22 - 1200 42.5 35.0 24 7.8 31.9 WSW | 239 15.0 28.3 WSW | 237 36.8 43.4 35.8
11/25/22 - 1100 42.2 36.3 23 6.8 31.6 WSW | 242 10.3 21.4 WSW | 250 36.8 43.4 35.8
11/25/22 - 1000 40.3 30.7 23 5.9 30.3 WSW | 237 20.9 27.4 WSW | 240 36.8 41.3 35.8
11/25/22 - 0900 39.3 28.8 24 5.6 29.6 SW | 233 23.2 28.3 WSW | 254 36.8 40.1 35.8
11/25/22 - 0800 37.3 26.2 26 5.3 28.4 SW | 230 23.3 34.7 SW | 233 36.8 39.8 35.8
11/25/22 - 0700 37.3 26.2 25 4.5 28.3 SW | 236 23.1 35.8 WSW | 245 36.9 39.8 35.8
11/25/22 - 0600 37.8 27.2 24 4.5 28.6 SW | 236 21.5 26.7 WSW | 240 37.0 39.8 26.7
11/25/22 - 0500 37.4 26.3 24 3.8 28.2 SW | 228 23.1 25.2 SSW | 211 37.0 39.8 25.2
11/25/22 - 0400 38.2 28.2 23 3.3 28.6 SW | 230 19.6 24.2 WSW | 238 37.0 39.8 24.2
11/25/22 - 0300 38.7 29.8 22 2.8 28.9 SW | 234 16.0 22.6 SW | 232 37.0 39.8 22.6
11/25/22 - 0200 38.9 32.8 21 2.0 28.9 SW | 225 8.9 13.2 WSW | 251 37.0 39.8 13.2
11/25/22 - 0100 37.6 32.3 22 2.2 28.2 SW | 235 7.0 12.3 WSW | 242 37.0 38.3 12.3
11/25/22 - 0000 36.7 - 24 2.9 27.6 SSW | 206 1.3 4.8 W | 262 27.3 40.7 30.4
11/24/22 - 2300 35.1 - 23 0.8 26.4 SSE | 166 0.8 0.8 WSW | 242 27.3 40.7 30.4
11/24/22 - 2200 31.8 - 29 2.8 24.5 SSE | 164 2.3 7.8 NNW | 342 27.3 40.7 30.4
Max 43.7 41.9 94 19.7 33.2 - 69.0 87.7 - 37.0 45.6 87.7
Avg 28.1 12.6 41 3.1 22.2 - 29.2 40.4 - - - -
Min 16.9 -6.3 7 -27.0 14.6 - 0.8 0.8 - 15.8 21.7 12.3

Last 365 Observations

Top of 22

Daily Data | America/Los_Angeles
as of 12/1/22 9:20 PM PST
Date Daily Max Temp (°F) Time of Max Temp Daily Min Temp (°F) Time of Min Temp Wind Spd (mph) Daily Max Wind (mph) Time of Max Wind Max Wind Dir (°) Dew Pt (°F) Max RH (%) Min RH (%) Wet Bulb (°F) Max Wet Bulb Temp (°F) Min Wet Bulb Temp (°F) WetB Hrs <28F (hrs) Hrs <= 32F (hrs) Min Wind Chill (°F) Wind Chill Time Heat Index Max Time
11/30/22 27.8 0121 18.4 2022 37.9 69.0 2350 SSW | 202 4.1 84 15 19.1 21.5 17.2 - - -6.3 2248 -
11/29/22 34.9 1443 20.0 0012 17.4 49.3 0127 W | 270 -3.7 34 15 21.2 26.3 14.2 - 20.3 -1.3 0011 -
11/28/22 27.6 0004 17.2 1936 40.0 87.7 1320 SW | 225 5.4 96 11 16.6 21.2 13.6 23.6 23.6 -6.8 1659 -
11/27/22 37.0 1100 27.3 2333 31.0 60.2 2359 SSW | 205 -9.0 38 6 23.5 27.1 19.5 - 9.8 6.5 2330 -
11/26/22 37.4 1304 23.8 2005 15.8 42.2 0250 SW | 225 4.2 82 4 24.8 30.5 17.6 20.6 11.4 10.8 1917 -
11/25/22 45.6 1527 35.0 2351 17.9 38.2 2331 WSW | 247 6.9 37 18 29.7 34.4 26.4 3.1 0.0 20.4 2338 -
11/24/22 40.7 1542 27.3 0651 10.1 30.4 0710 NE | 42 -2.0 35 12 24.4 30.1 20.0 22.4 11.2 11.6 0710 -
11/23/22 38.8 1447 28.6 2155 9.2 26.3 1955 NNE | 13 0.8 63 11 24.7 29.0 20.7 22.7 13.0 14.8 2247 -
11/22/22 42.3 1504 27.5 0001 4.7 19.3 2334 N | 8 3.1 59 8 25.8 32.8 20.0 17.7 11.8 18.5 0104 -
11/21/22 42.7 1314 26.6 2354 2.8 17.8 0455 W | 268 -6.2 66 6 24.3 31.0 19.8 20.1 14.6 15.7 0549 -
11/20/22 40.8 1304 28.4 2059 3.0 19.0 0445 SW | 224 -10.1 27 5 23.7 29.9 20.4 20.9 14.4 18.5 0133 -
11/19/22 32.9 2305 14.8 0218 8.0 26.4 0422 N | 349 -10.9 42 7 17.2 25.0 10.8 - 23.8 -4.4 0541 -
11/18/22 29.5 0001 12.7 2057 8.9 29.7 1310 NNE | 12 5.0 90 18 18.5 24.6 11.2 - - -6.0 2104 -
11/17/22 43.5 1156 27.3 0002 9.1 29.3 1548 WSW | 239 0.0 39 8 25.6 31.9 20.4 17.8 10.3 16.5 2204 -
11/16/22 36.1 1510 17.4 0142 7.9 32.5 0045 N | 2 -5.2 48 14 19.6 28.0 13.8 - 20.2 -1.6 0115 -
11/15/22 24.2 1106 12.4 0647 10.5 31.5 2346 NNE | 17 7.6 95 25 15.8 21.1 12.0 - - -8.3 0646 -
11/14/22 32.3 1043 16.6 2345 8.5 29.2 1115 SW | 216 2.6 76 21 20.2 25.4 14.9 - 23.4 7.6 2224 -
11/13/22 23.6 2303 10.3 0540 12.2 38.0 0700 NW | 325 5.2 95 25 13.6 18.0 10.0 - - -13.6 0659 -
11/12/22 21.4 1329 13.6 2321 39.9 58.7 0459 SW | 215 9.3 95 36 16.1 20.6 13.3 - - -9.6 2249 -
11/11/22 27.3 1040 15.1 0001 14.3 45.9 2248 SW | 219 21.3 100 92 21.8 27.1 14.6 - - -0.9 2357 -
11/10/22 24.8 1554 8.9 0647 4.4 24.4 0334 WNW | 299 13.1 98 89 14.6 24.5 8.6 - - -9.7 0241 -
11/9/22 16.6 1549 7.7 2302 2.1 29.1 1537 WSW | 258 9.8 94 89 11.4 16.2 7.5 - - -6.2 1621 -
11/8/22 21.8 1122 11.5 2246 0.8 0.8 1042 SW | 214 14.5 97 92 15.5 21.5 11.2 - - 11.5 2246 -
11/7/22 28.2 0055 12.3 2114 0.8 0.8 1626 SW | 214 20.9 100 92 21.4 28.1 12.0 23.6 - 12.3 2114 -
11/6/22 31.0 0939 26.9 2239 5.2 40.6 0238 SSW | 213 29.6 100 99 29.5 30.9 26.7 4.2 - 13.4 0238 -
11/5/22 39.5 1203 30.1 0036 31.6 53.8 1032 SW | 215 18.9 100 25 29.8 33.3 27.0 6.0 5.7 13.1 2019 -
11/4/22 36.7 0057 18.0 0101 9.2 49.6 2336 SW | 219 22.6 100 28 27.5 31.7 17.6 13.4 13.5 -1.7 0103 -
11/3/22 21.6 1504 7.8 0719 10.2 30.6 2220 NNE | 31 11.4 96 88 13.0 21.2 7.6 - - -10.4 2220 -
11/2/22 14.2 1146 11.2 0057 29.9 73.5 0512 SSW | 206 11.0 92 90 12.7 13.8 10.9 - - -16.6 0512 -
11/1/22 31.5 0101 13.3 2352 38.4 82.8 1130 SSW | 212 13.5 95 41 19.7 25.6 12.7 23.4 23.4 -15.1 0027 -
10/31/22 45.4 0944 31.5 0058 3.7 30.3 1021 N | 11 9.4 42 9 29.9 33.5 25.6 4.6 0.9 27.0 0446 -
10/30/22 51.4 1658 29.6 0420 4.7 19.7 1245 N | 8 9.2 49 17 29.2 36.9 24.6 7.9 6.1 20.3 0223 -
10/29/22 52.2 1615 28.2 0623 6.4 22.3 2010 NNE | 14 10.1 48 21 28.0 38.2 22.8 14.8 9.7 20.4 0007 -
10/28/22 42.9 1414 30.1 0741 18.0 47.4 0301 NE | 40 12.5 52 26 28.0 33.2 24.5 13.3 7.6 12.6 0753 -
10/27/22 43.0 1543 28.8 0101 6.8 39.2 0038 NNE | 33 7.8 46 25 27.0 32.9 22.2 12.9 8.5 18.7 2359 -
10/26/22 38.8 1456 27.4 2302 22.8 54.4 0805 NE | 56 -1.8 65 6 24.0 30.3 20.0 20.9 17.3 9.1 0707 -
10/25/22 41.9 1253 28.9 2131 29.3 53.8 2201 NE | 51 12.7 71 6 28.6 34.4 20.6 8.3 7.0 10.1 2131 -
10/24/22 52.1 1649 23.2 0123 14.6 36.2 0337 NE | 36 7.6 55 4 29.8 39.1 16.2 7.8 6.5 8.9 0126 -
10/23/22 34.0 1601 14.9 0209 12.9 52.7 0512 NE | 56 11.2 94 5 19.2 29.0 13.1 22.5 21.1 -8.1 0512 -
10/22/22 38.3 0101 15.9 0059 23.3 106.1 1029 ENE | 67 23.3 100 34 23.7 30.5 15.4 9.3 17.9 2.9 0048 -
10/21/22 54.1 1255 37.2 2354 25.0 86.6 0053 NE | 54 19.7 61 17 34.9 39.9 30.3 0.0 0.0 19.4 0053 -
10/20/22 58.3 1616 37.4 0607 3.7 24.7 1715 N | 6 14.6 45 15 34.6 41.8 29.6 0.0 0.0 34.0 0506 -
10/19/22 56.7 1517 38.2 0550 12.1 30.0 1238 N | 8 15.2 42 18 35.0 40.7 31.1 0.0 0.0 30.2 0550 -
10/18/22 56.4 1511 39.0 0705 10.2 30.2 1554 N | 6 17.7 42 20 35.7 40.8 31.5 0.0 0.0 34.1 2306 -
10/17/22 59.7 1327 39.5 0504 6.8 27.4 1341 N | 4 15.8 40 20 35.7 43.6 30.6 0.0 0.0 34.9 0207 -
10/16/22 62.4 1517 39.4 0559 6.7 23.5 1645 N | 2 12.7 47 13 35.3 45.1 30.1 0.0 0.0 32.2 0135 -
10/15/22 63.7 1630 39.3 0607 10.0 27.7 1308 N | 4 11.7 36 13 35.4 43.3 31.1 0.0 0.0 31.8 0600 -
10/14/22 60.8 1623 39.8 0652 12.0 34.2 1141 N | 5 13.4 40 12 35.8 42.4 32.1 0.0 0.0 29.4 0651 -
10/13/22 60.6 1451 39.6 0642 14.1 31.4 1523 N | 4 16.6 40 17 36.3 43.0 31.9 0.0 0.0 29.7 0459 -
10/12/22 61.6 1628 38.4 0652 12.0 28.8 1411 N | 4 16.5 43 15 36.1 43.9 31.2 0.0 0.0 29.5 0702 -
10/11/22 62.3 1708 38.6 0547 8.3 23.9 1547 N | 3 19.8 50 17 36.9 44.4 32.3 0.0 0.0 32.2 0525 -
10/10/22 55.0 1442 40.5 0030 7.2 39.9 1412 N | 8 23.8 56 25 37.0 43.0 33.4 0.0 0.0 33.7 2306 -
10/9/22 58.7 1314 41.3 0559 5.9 32.1 1725 N | 3 19.8 52 20 37.5 43.2 32.2 0.0 0.0 35.9 2030 -
10/8/22 67.4 1555 42.3 0523 7.9 28.1 1706 N | 3 18.4 43 13 38.2 47.4 33.0 0.0 0.0 37.5 2301 -
10/7/22 66.3 1550 41.7 0718 8.1 28.4 1211 N | 3 18.9 42 15 38.4 45.7 33.9 0.0 0.0 35.3 0641 -
10/6/22 65.0 1532 42.9 0644 6.2 34.2 1758 N | 3 22.0 44 15 39.2 45.7 34.8 0.0 0.0 40.0 2257 -
10/5/22 62.0 1342 41.6 0530 9.6 34.9 1735 N | 3 23.7 46 20 39.2 45.5 34.3 0.0 0.0 37.8 2238 -
10/4/22 62.6 1423 42.6 0316 12.0 35.2 0550 NE | 36 22.0 41 18 39.5 45.5 34.1 0.0 0.0 38.0 0439 -
10/3/22 67.4 1614 39.2 0651 8.0 24.4 2216 N | 5 22.2 56 15 38.3 47.0 33.7 0.0 0.0 34.6 2306 -
10/2/22 58.6 1548 42.4 0035 18.1 37.8 0519 SW | 226 19.8 51 16 38.3 43.8 33.7 0.0 0.0 34.3 2353 -
10/1/22 57.6 1324 43.2 0247 18.3 37.5 1445 N | 9 20.8 48 19 38.7 42.9 34.2 0.0 0.0 35.8 0058 -
9/30/22 65.5 1728 44.1 0550 8.3 22.7 1554 N | 5 20.2 51 12 39.9 46.5 35.0 0.0 0.0 37.8 0554 -
9/29/22 56.8 1627 44.5 0041 33.6 66.3 0603 SW | 221 22.8 51 20 39.2 42.9 36.8 0.0 0.0 33.4 0447 -
9/28/22 57.7 1409 47.1 0039 24.4 55.6 0057 SW | 218 25.3 48 27 40.2 43.5 38.1 0.0 0.0 35.4 0057 -
9/27/22 59.6 1455 48.2 0055 22.7 47.8 1536 SW | 217 28.4 58 28 42.1 44.9 38.7 0.0 0.0 38.9 0054 -
9/26/22 69.2 1534 49.9 0652 12.9 35.0 1814 SW | 218 32.0 58 23 44.9 49.5 41.1 0.0 0.0 45.8 0648 -
9/25/22 74.6 1518 46.2 0203 10.0 34.4 1846 SW | 225 31.4 64 16 44.1 52.7 37.3 0.0 0.0 40.6 0624 -
9/24/22 68.2 1459 42.7 0238 8.9 29.2 0431 SSW | 212 24.0 48 21 40.5 49.6 33.8 0.0 0.0 35.7 0431 -
9/23/22 68.5 1731 35.9 0712 3.4 18.9 1756 SW | 222 22.6 67 14 37.7 46.8 31.5 0.0 0.0 32.7 0358 -
9/22/22 60.0 1635 36.6 0524 11.7 38.9 0201 S | 188 16.2 61 18 35.2 43.6 27.5 1.3 0.0 23.4 0309 -
9/21/22 43.6 1214 31.2 0647 25.5 46.9 1823 SW | 229 28.3 97 34 33.2 38.2 29.1 0.0 0.9 15.1 0649 -
9/20/22 43.9 1611 33.1 0705 24.6 48.8 1942 S | 190 31.4 96 60 34.8 39.6 31.4 0.0 0.0 18.0 0719 -
9/19/22 52.0 1515 36.8 2027 24.2 48.8 0600 S | 180 30.2 94 43 37.9 43.3 33.5 0.0 0.0 22.3 2027 -
9/18/22 - 1541 32.4 0815 27.1 51.3 2141 SSW | 211 - 100 3 - 42.9 28.6 0.0 0.0 29.0 2141 1549
9/17/22 47.1 1322 33.8 0059 33.6 52.3 0007 SW | 215 30.3 93 14 35.3 38.7 29.3 0.0 0.0 17.5 0045 -
9/16/22 56.6 1400 36.8 0646 3.8 8.0 0656 N | 5 21.2 66 12 36.6 43.2 31.7 0.0 0.0 30.7 0703 -
9/15/22 52.8 1414 39.1 0152 4.8 9.9 0138 N | 7 18.5 72 15 36.0 42.4 30.2 0.0 0.0 32.6 0136 -
9/14/22 50.5 1304 38.1 0651 8.8 12.8 0456 N | 9 32.1 86 48 38.8 43.4 33.3 0.0 0.0 30.7 0651 -
9/13/22 46.8 1624 40.6 2135 5.5 10.9 0050 N | 7 38.0 98 59 41.2 44.8 35.5 0.0 0.0 35.1 0050 -
9/12/22 61.5 1355 42.8 2157 - 0.9 0059 N | 0 41.1 97 45 45.6 51.4 42.1 0.0 0.0 42.8 2158 -
9/11/22 64.5 1153 46.6 0722 - - 0725 N | 0 39.9 82 35 46.6 54.6 43.2 0.0 0.0 46.6 0723 -
9/10/22 67.6 1323 43.1 1939 - - 1943 N | 0 40.2 100 34 47.2 55.7 41.8 0.0 0.0 43.1 1939 -
9/9/22 77.2 1552 52.8 0520 - - 0655 N | 0 31.8 52 17 47.0 53.6 42.8 0.0 0.0 - - -
9/8/22 81.0 1258 53.9 0412 - - 0644 N | 0 31.8 42 16 47.4 54.9 43.4 0.0 0.0 - - -
9/7/22 83.2 1445 56.2 0422 - - 0713 N | 0 32.3 48 16 47.9 55.1 44.2 0.0 0.0 - - -
9/6/22 81.6 1632 59.2 0115 - - 0638 N | 0 29.4 51 13 48.5 62.2 43.2 0.0 0.0 - - -
9/5/22 83.0 1258 56.5 0658 - - 0727 N | 0 31.1 38 12 48.8 54.2 44.3 0.0 0.0 - - -
9/4/22 85.8 1422 60.5 0311 - - 0559 N | 0 33.0 38 14 49.9 56.5 46.2 0.0 0.0 - - -
9/3/22 78.5 1341 59.1 0620 - - 0634 N | 0 29.8 34 17 48.2 53.0 44.9 0.0 0.0 - - -
9/2/22 79.1 1425 58.3 0622 - - 0502 N | 0 28.0 33 15 47.4 52.3 43.9 0.0 0.0 - - -
9/1/22 83.8 1520 57.8 0629 - - 0640 N | 0 28.4 35 14 47.1 54.4 42.8 0.0 0.0 - - -
8/31/22 77.8 1644 58.9 0018 - - - - 27.6 59 16 47.3 52.4 - 0.0 0.0 - - -
8/30/22 - - - - - - - - - - - - - - - - - - -
Max 85.8 - 60.5 - 40.0 106.1 - - 41.1 100 99 49.9 62.2 46.2 23.6 23.8 46.6 - -
Avg - - - - 13.9 - - - 17.1 - - 32.3 - - - 4.5 - - -
Min 14.2 - 7.7 - 0.8 0.8 - - -10.9 27 3 11.4 13.8 7.5 0.0 0.0 -16.6 - -
Total - - - - - - - - - - - - - - - 353.8 - - -